City of London, United Kingdom
Current Conditions -  °F | °C
As of 10:20 AM on Thursday 23 Oct 2014 (Local Time) from EGLC Reporting Station
Few Clouds Few Clouds  
Wind Chill: 57°   Ceiling: Unl
Heat Index: 57°   Visibility: 6mi
Dew Point: 48°   Wind: 10mph
Humidity: 72%   Direction: 230°SW
Pressure: 30.12"   Gusts: NA
Location:  51.51°N, 0.09°W
Report Text: EGLC 230920Z 23009KT 9999 FEW038 14/09 Q1020
Loading
Personal Weather Stations






























Interactive Weather Map New forecast layout! Learn more

10-Day Weather Forecast

Advertisements
Track Severe Weather on mobile